Time;durP1;ratioP1;P1;durP2;ratioP2;P2;SDS_P1;SDS_P2;PMS_P1;PMS_P2;Temp;Humidity;BMP_temperature;BMP_pressure;BME280_temperature;BME280_humidity;BME280_pressure;Samples;Min_cycle;Max_cycle;Signal;HPM_P1;HPM_P2
2021/08/21 00:02:10;;;;;;;3.42;2.80;;;;;;;20.33;61.09;100072.59;4488486;31;33714;-80
2021/08/21 00:04:38;;;;;;;3.37;2.72;;;;;;;20.39;61.01;100061.37;4463846;31;33289;-79
2021/08/21 00:07:06;;;;;;;3.83;2.50;;;;;;;20.24;61.47;100067.13;4473273;31;33245;-80
2021/08/21 00:09:36;;;;;;;2.83;2.42;;;;;;;20.29;60.98;100067.59;4473627;31;33538;-79
2021/08/21 00:12:05;;;;;;;3.45;2.65;;;;;;;20.36;60.44;100066.12;4480276;31;34007;-79
2021/08/21 00:14:33;;;;;;;3.37;2.60;;;;;;;20.27;61.00;100066.84;4467549;31;33470;-79
2021/08/21 00:17:01;;;;;;;4.57;2.35;;;;;;;20.40;60.69;100059.53;4469799;31;33758;-79
2021/08/21 00:19:30;;;;;;;4.18;2.35;;;;;;;20.23;61.46;100060.91;4471118;31;32503;-81
2021/08/21 00:21:58;;;;;;;3.37;2.20;;;;;;;20.28;61.12;100064.06;4466593;31;33961;-80
2021/08/21 00:24:25;;;;;;;4.03;2.85;;;;;;;20.33;60.90;100058.34;4483993;31;34215;-80
2021/08/21 00:27:08;;;;;;;3.37;2.90;;;;;;;20.35;60.98;100073.31;4473144;31;33942;-80
2021/08/21 00:29:36;;;;;;;4.15;2.90;;;;;;;20.08;62.03;100068.34;4473452;31;33978;-80
2021/08/21 00:32:11;;;;;;;3.45;2.45;;;;;;;20.06;62.24;100069.44;4469234;31;33696;-79
2021/08/21 00:34:39;;;;;;;3.75;2.47;;;;;;;20.14;61.79;100061.63;4484304;31;34642;-79
2021/08/21 00:37:06;;;;;;;2.87;2.37;;;;;;;20.14;61.69;100065.16;4473227;31;34679;-79
2021/08/21 00:39:35;;;;;;;2.80;2.55;;;;;;;20.14;61.50;100069.69;4481873;31;33422;-80
2021/08/21 00:42:04;;;;;;;2.90;2.45;;;;;;;20.03;61.74;100067.81;4479820;31;33874;-80
2021/08/21 00:44:36;;;;;;;3.92;2.20;;;;;;;20.14;61.20;100073.22;4465155;31;33142;-80
2021/08/21 00:47:12;;;;;;;5.00;2.90;;;;;;;20.16;60.92;100071.25;4475950;31;33463;-79
2021/08/21 00:49:45;;;;;;;4.85;3.37;;;;;;;20.15;60.95;100074.06;4490143;31;34152;-80
2021/08/21 00:52:19;;;;;;;6.80;2.47;;;;;;;20.00;61.79;100068.09;4485993;31;33983;-80
2021/08/21 00:54:49;;;;;;;3.33;2.22;;;;;;;19.97;61.96;100065.62;4474831;31;33918;-80
2021/08/21 00:57:17;;;;;;;4.00;2.33;;;;;;;19.99;61.66;100068.19;4469662;31;33881;-80
2021/08/21 00:59:47;;;;;;;3.37;2.50;;;;;;;19.86;62.06;100069.16;4470185;31;33442;-80
2021/08/21 01:02:15;;;;;;;3.33;2.75;;;;;;;20.00;61.45;100070.78;4479021;31;34625;-80
2021/08/21 01:04:46;;;;;;;7.18;2.25;;;;;;;20.06;61.45;100070.28;4471774;31;33157;-79
2021/08/21 01:07:15;;;;;;;5.07;2.25;;;;;;;19.93;61.43;100075.72;4489518;31;34019;-79
2021/08/21 01:09:44;;;;;;;3.25;2.75;;;;;;;19.91;61.36;100076.84;4490926;31;33402;-79
2021/08/21 01:12:13;;;;;;;2.70;2.28;;;;;;;19.91;61.17;100068.81;4483599;31;33878;-80
2021/08/21 01:14:42;;;;;;;3.12;2.25;;;;;;;19.93;61.04;100069.53;4488800;31;34754;-80
2021/08/21 01:17:11;;;;;;;2.90;2.30;;;;;;;19.96;60.96;100071.97;4478350;31;34381;-80
2021/08/21 01:19:42;;;;;;;3.72;2.50;;;;;;;19.87;61.28;100068.19;4467350;31;32327;-80
2021/08/21 01:22:18;;;;;;;3.87;2.30;;;;;;;19.79;61.61;100072.44;4473887;31;32834;-80
2021/08/21 01:24:49;;;;;;;3.95;2.50;;;;;;;19.76;61.56;100068.19;4478147;31;34189;-80
2021/08/21 01:27:23;;;;;;;5.87;2.70;;;;;;;19.89;60.97;100068.94;4456536;31;32743;-80
2021/08/21 01:29:52;;;;;;;3.90;2.75;;;;;;;19.87;61.18;100067.34;4467937;31;32537;-80
2021/08/21 01:32:21;;;;;;;3.15;2.25;;;;;;;19.76;61.41;100061.97;4481841;31;33155;-80
2021/08/21 01:34:49;;;;;;;3.53;2.30;;;;;;;19.85;61.29;100063.94;4487046;31;33814;-80
2021/08/21 01:37:18;;;;;;;4.07;2.53;;;;;;;19.87;61.25;100053.94;4474105;31;34124;-80
2021/08/21 01:39:47;;;;;;;4.03;2.45;;;;;;;19.93;60.99;100059.66;4478553;31;33381;-80
2021/08/21 01:42:17;;;;;;;2.85;2.42;;;;;;;19.88;61.43;100052.97;4476859;31;33621;-80
2021/08/21 01:44:45;;;;;;;4.25;2.50;;;;;;;19.73;62.18;100056.84;4472546;31;33934;-80
2021/08/21 01:47:14;;;;;;;3.55;2.62;;;;;;;19.82;62.19;100058.81;4477608;31;33869;-79
2021/08/21 01:49:42;;;;;;;2.95;2.37;;;;;;;19.87;62.05;100064.66;4470435;31;33304;-80
2021/08/21 01:52:10;;;;;;;5.78;2.78;;;;;;;19.71;62.71;100059.66;4472986;31;33735;-80
2021/08/21 01:54:38;;;;;;;3.62;2.60;;;;;;;19.91;62.17;100060.75;4485682;31;34137;-80
2021/08/21 01:57:06;;;;;;;2.62;2.30;;;;;;;20.00;61.85;100065.41;4480328;31;33482;-79
2021/08/21 01:59:37;;;;;;;3.65;3.00;;;;;;;19.97;61.98;100062.97;4475102;31;33401;-80
2021/08/21 02:02:07;;;;;;;3.50;2.62;;;;;;;19.88;62.36;100066.34;4469756;31;33267;-79
2021/08/21 02:04:38;;;;;;;4.37;2.83;;;;;;;19.89;62.62;100065.38;4484750;31;33658;-79
2021/08/21 02:07:06;;;;;;;2.75;2.42;;;;;;;19.90;62.69;100065.28;4478355;31;33788;-79
2021/08/21 02:09:34;;;;;;;3.17;2.60;;;;;;;20.03;62.37;100069.66;4467221;31;34069;-79
2021/08/21 02:12:04;;;;;;;6.05;2.95;;;;;;;19.97;62.49;100064.78;4476918;31;33794;-80
2021/08/21 02:14:34;;;;;;;3.58;2.65;;;;;;;20.36;60.95;100069.66;4477363;31;33248;-80
2021/08/21 02:17:03;;;;;;;3.60;2.67;;;;;;;20.19;61.56;100071.03;4470398;31;33835;-79
2021/08/21 02:19:32;;;;;;;3.05;2.50;;;;;;;20.03;62.52;100073.19;4487477;31;33159;-80
2021/08/21 02:22:02;;;;;;;3.97;2.67;;;;;;;19.93;63.02;100072.22;4475824;31;33609;-80
2021/08/21 02:24:35;;;;;;;3.80;2.67;;;;;;;20.06;62.77;100069.44;4486578;31;33602;-80
2021/08/21 02:27:04;;;;;;;3.17;2.55;;;;;;;19.98;63.07;100074.53;4473205;31;33671;-80
2021/08/21 02:29:32;;;;;;;3.55;2.90;;;;;;;20.03;62.85;100073.19;4470772;31;33350;-80
2021/08/21 02:32:00;;;;;;;3.03;2.50;;;;;;;19.98;63.09;100067.34;4467454;31;33940;-80
2021/08/21 02:34:29;;;;;;;3.20;2.28;;;;;;;20.05;62.99;100068.56;4471502;31;33670;-80
2021/08/21 02:36:57;;;;;;;3.45;2.53;;;;;;;20.06;62.61;100064.06;4473442;31;33557;-79
2021/08/21 02:39:25;;;;;;;4.10;2.45;;;;;;;20.09;62.62;100064.69;4470698;31;33439;-79
2021/08/21 02:41:53;;;;;;;2.97;2.05;;;;;;;20.14;62.54;100067.00;4466954;32;33693;-79
2021/08/21 02:44:20;;;;;;;3.83;2.85;;;;;;;20.15;62.10;100066.88;4472741;31;35150;-79
2021/08/21 02:46:48;;;;;;;3.85;2.92;;;;;;;20.16;61.92;100065.03;4487280;31;34314;-79
2021/08/21 02:49:17;;;;;;;3.72;2.75;;;;;;;20.19;61.78;100059.44;4472494;31;32800;-79
2021/08/21 02:51:45;;;;;;;4.22;2.78;;;;;;;20.12;62.33;100064.41;4478661;31;32840;-79
2021/08/21 02:54:12;;;;;;;2.90;2.17;;;;;;;20.19;62.16;100064.81;4454634;31;33553;-78
2021/08/21 02:56:40;;;;;;;2.83;2.35;;;;;;;20.43;61.57;100059.31;4491950;31;33477;-79
2021/08/21 02:59:08;;;;;;;2.87;2.28;;;;;;;20.42;61.57;100057.59;4470008;31;33712;-79
2021/08/21 03:01:36;;;;;;;4.43;2.53;;;;;;;19.98;63.14;100066.50;4471670;32;34661;-79
2021/08/21 03:04:04;;;;;;;3.83;2.22;;;;;;;19.84;63.54;100072.91;4487163;31;33973;-78
2021/08/21 03:06:32;;;;;;;3.60;2.62;;;;;;;19.65;63.96;100068.13;4492648;31;33977;-79
2021/08/21 03:09:01;;;;;;;5.40;2.97;;;;;;;19.71;63.46;100064.16;4475313;31;32193;-79
2021/08/21 03:11:30;;;;;;;3.17;2.20;;;;;;;19.78;63.17;100065.38;4476692;31;34858;-79
2021/08/21 03:14:00;;;;;;;3.92;3.20;;;;;;;19.91;62.62;100071.50;4463107;31;34611;-79
2021/08/21 03:16:28;;;;;;;3.85;2.80;;;;;;;19.85;63.02;100067.47;4490165;31;33856;-79
2021/08/21 03:18:56;;;;;;;4.75;2.80;;;;;;;20.16;61.94;100060.53;4478762;31;32883;-79
2021/08/21 03:21:24;;;;;;;5.32;2.60;;;;;;;20.08;62.42;100067.47;4470895;31;33703;-79
2021/08/21 03:23:52;;;;;;;3.62;2.78;;;;;;;19.93;62.97;100073.06;4494661;31;33965;-79
2021/08/21 03:26:20;;;;;;;4.10;2.37;;;;;;;19.92;63.03;100070.50;4468828;31;33611;-79
2021/08/21 03:28:49;;;;;;;2.75;2.37;;;;;;;19.81;63.40;100071.34;4487393;31;33015;-79
2021/08/21 03:31:17;;;;;;;3.45;2.17;;;;;;;19.66;63.67;100070.72;4453501;31;33985;-79
2021/08/21 03:33:45;;;;;;;3.15;2.70;;;;;;;19.63;63.74;100073.63;4471295;31;33163;-79
2021/08/21 03:36:13;;;;;;;5.60;2.53;;;;;;;19.67;63.51;100068.88;4481302;31;33847;-79
2021/08/21 03:38:41;;;;;;;3.22;2.53;;;;;;;19.76;63.37;100075.38;4454136;31;32364;-79
2021/08/21 03:41:12;;;;;;;3.33;2.78;;;;;;;19.75;63.56;100070.94;4479913;31;33982;-79
2021/08/21 03:43:41;;;;;;;5.12;2.97;;;;;;;19.58;63.86;100075.78;4475158;31;35474;-79
2021/08/21 03:46:09;;;;;;;2.85;2.35;;;;;;;19.67;63.36;100077.78;4474551;31;32135;-80
2021/08/21 03:48:36;;;;;;;4.57;2.87;;;;;;;19.66;63.12;100081.44;4485310;31;33298;-80
2021/08/21 03:51:04;;;;;;;3.47;2.60;;;;;;;19.72;62.84;100084.59;4481842;31;33839;-80
2021/08/21 03:53:34;;;;;;;4.00;2.72;;;;;;;19.71;62.73;100080.22;4458459;31;33157;-79
2021/08/21 03:56:03;;;;;;;3.22;2.42;;;;;;;19.60;62.98;100089.91;4468041;31;35521;-80
2021/08/21 03:58:32;;;;;;;3.65;2.35;;;;;;;19.71;62.61;100081.09;4479387;31;33923;-82
2021/08/21 04:01:00;;;;;;;5.43;2.50;;;;;;;19.62;62.75;100088.00;4474957;31;32769;-80
2021/08/21 04:03:29;;;;;;;4.75;2.40;;;;;;;19.72;62.66;100100.69;4468177;31;33655;-80
2021/08/21 04:05:57;;;;;;;3.55;2.58;;;;;;;19.66;62.72;100088.63;4468043;31;35824;-80
2021/08/21 04:08:24;;;;;;;6.32;2.85;;;;;;;19.65;62.73;100093.12;4475743;31;34150;-80
2021/08/21 04:10:52;;;;;;;6.43;2.37;;;;;;;19.67;62.74;100095.69;4486019;31;33550;-80
2021/08/21 04:13:20;;;;;;;6.32;3.60;;;;;;;19.63;62.87;100097.72;4484993;31;33557;-80
2021/08/21 04:15:48;;;;;;;5.82;2.40;;;;;;;19.61;62.85;100097.00;4472514;31;33055;-80
2021/08/21 04:18:16;;;;;;;3.70;2.58;;;;;;;19.64;62.74;100099.44;4478633;31;34046;-80
2021/08/21 04:20:44;;;;;;;2.65;2.35;;;;;;;19.66;62.99;100100.19;4485270;31;34950;-80
2021/08/21 04:23:12;;;;;;;4.53;2.72;;;;;;;19.63;63.40;100099.56;4487726;31;33623;-80
2021/08/21 04:25:41;;;;;;;4.75;2.67;;;;;;;19.84;62.82;100107.75;4473716;31;33757;-79
2021/08/21 04:28:09;;;;;;;2.85;2.53;;;;;;;19.67;63.55;100104.56;4471378;31;33600;-80
2021/08/21 04:30:38;;;;;;;3.30;2.92;;;;;;;19.72;63.79;100108.72;4473783;31;33862;-79
2021/08/21 04:33:06;;;;;;;3.30;3.00;;;;;;;19.72;64.08;100114.09;4477421;31;34196;-80
2021/08/21 04:35:36;;;;;;;4.72;3.53;;;;;;;19.84;63.46;100111.28;4477465;31;32928;-79
2021/08/21 04:38:04;;;;;;;4.45;2.62;;;;;;;19.84;63.41;100108.59;4478991;31;33891;-80
2021/08/21 04:40:32;;;;;;;3.75;2.65;;;;;;;19.91;63.08;100119.72;4487970;31;33967;-80
2021/08/21 04:43:00;;;;;;;2.90;2.55;;;;;;;19.82;63.32;100115.94;4479400;31;35191;-80
2021/08/21 04:45:28;;;;;;;3.62;2.60;;;;;;;19.93;63.06;100109.72;4481288;31;34944;-79
2021/08/21 04:47:57;;;;;;;4.37;3.00;;;;;;;20.11;62.60;100105.63;4478901;31;33510;-79
2021/08/21 04:50:25;;;;;;;7.22;3.80;;;;;;;20.06;63.07;100120.34;4481749;31;34488;-79
2021/08/21 04:52:53;;;;;;;5.05;2.75;;;;;;;20.04;63.28;100119.63;4481281;31;34003;-79
2021/08/21 04:55:21;;;;;;;3.65;2.95;;;;;;;20.40;62.36;100111.34;4484567;31;33729;-79
2021/08/21 04:57:50;;;;;;;4.95;3.30;;;;;;;20.37;62.94;100121.50;4472393;31;33545;-80
2021/08/21 05:00:19;;;;;;;7.70;4.43;;;;;;;20.32;63.55;100118.28;4482316;31;33947;-80
2021/08/21 05:02:53;;;;;;;4.47;3.15;;;;;;;20.22;64.18;100118.16;4490656;31;34137;-80
2021/08/21 05:05:26;;;;;;;5.03;3.60;;;;;;;20.54;63.33;100121.00;4474562;31;34295;-80
2021/08/21 05:07:55;;;;;;;4.10;3.47;;;;;;;20.71;62.90;100120.53;4486840;31;33181;-80
2021/08/21 05:10:23;;;;;;;3.97;2.80;;;;;;;20.75;62.53;100121.13;4487570;31;33600;-79
2021/08/21 05:12:50;;;;;;;4.15;2.42;;;;;;;20.73;62.69;100124.91;4488670;31;33969;-79
2021/08/21 05:15:18;;;;;;;6.07;3.65;;;;;;;20.94;61.62;100128.53;4475898;31;32618;-79
2021/08/21 05:17:49;;;;;;;5.75;2.67;;;;;;;21.05;61.89;100122.28;4492034;31;33853;-79
2021/08/21 05:20:26;;;;;;;5.43;3.17;;;;;;;21.12;61.71;100124.31;4483156;31;34731;-79
2021/08/21 05:23:05;;;;;;;3.85;2.97;;;;;;;21.47;60.79;100120.59;4475174;31;33710;-79
2021/08/21 05:25:38;;;;;;;3.97;3.28;;;;;;;21.40;61.26;100127.44;4464104;32;34293;-79
2021/08/21 05:28:08;;;;;;;4.87;3.00;;;;;;;21.67;59.97;100122.44;4488115;31;32063;-79
2021/08/21 05:30:39;;;;;;;5.97;3.42;;;;;;;21.54;60.37;100128.97;4493215;31;34549;-79
2021/08/21 05:33:14;;;;;;;5.72;3.17;;;;;;;21.55;59.52;100126.16;4486282;31;33307;-79
2021/08/21 05:35:43;;;;;;;5.15;3.10;;;;;;;21.82;60.06;100122.09;4474463;31;33876;-79
2021/08/21 05:38:11;;;;;;;6.62;3.50;;;;;;;21.84;60.34;100120.12;4473866;31;33346;-79
2021/08/21 05:40:39;;;;;;;3.92;3.20;;;;;;;22.17;59.90;100117.28;4473761;32;34345;-79
2021/08/21 05:43:09;;;;;;;5.78;3.05;;;;;;;22.41;59.67;100121.50;4483690;31;32744;-79
2021/08/21 05:45:37;;;;;;;5.85;3.40;;;;;;;22.48;58.41;100125.34;4469668;31;33824;-80
2021/08/21 05:48:05;;;;;;;5.22;3.53;;;;;;;22.47;58.09;100134.41;4471395;31;33116;-80
2021/08/21 05:50:33;;;;;;;4.18;2.83;;;;;;;22.48;59.14;100131.56;4471469;31;33880;-80
2021/08/21 05:53:00;;;;;;;4.18;3.25;;;;;;;22.68;58.55;100137.88;4487905;31;33972;-80
2021/08/21 05:55:28;;;;;;;3.87;2.80;;;;;;;22.92;58.22;100134.84;4471309;31;33343;-80
2021/08/21 05:57:56;;;;;;;4.85;3.10;;;;;;;23.16;58.58;100137.16;4465816;31;35193;-80
2021/08/21 06:00:25;;;;;;;3.95;2.55;;;;;;;23.19;57.46;100136.06;4473196;31;33874;-80
2021/08/21 06:02:55;;;;;;;3.42;2.40;;;;;;;23.39;56.64;100136.91;4471939;31;33656;-80
2021/08/21 06:05:22;;;;;;;4.78;2.58;;;;;;;23.19;55.18;100139.59;4474613;31;34536;-80
2021/08/21 06:07:50;;;;;;;3.90;3.12;;;;;;;23.57;55.24;100137.06;4473959;31;33292;-80
2021/08/21 06:10:20;;;;;;;5.97;3.80;;;;;;;23.72;55.19;100138.38;4484820;31;33546;-79
2021/08/21 06:12:48;;;;;;;3.92;2.40;;;;;;;23.81;53.67;100144.75;4484208;31;34065;-80
2021/08/21 06:15:15;;;;;;;3.92;2.62;;;;;;;23.84;55.17;100139.09;4486366;31;33516;-80
2021/08/21 06:17:43;;;;;;;3.30;2.40;;;;;;;24.00;54.75;100142.88;4471030;31;33810;-80
2021/08/21 06:20:13;;;;;;;4.70;2.53;;;;;;;24.05;54.56;100138.91;4487936;31;33540;-80
2021/08/21 06:22:40;;;;;;;5.50;2.40;;;;;;;24.14;53.24;100128.06;4469927;31;33780;-81
2021/08/21 06:25:10;;;;;;;4.55;2.62;;;;;;;24.26;52.37;100143.13;4478471;31;33489;-80
2021/08/21 06:27:38;;;;;;;4.62;2.90;;;;;;;24.41;52.71;100134.56;4473505;31;33814;-80
2021/08/21 06:30:06;;;;;;;4.90;2.70;;;;;;;24.37;55.04;100133.16;4483736;31;33990;-80
2021/08/21 06:32:34;;;;;;;7.53;2.00;;;;;;;24.45;54.08;100141.34;4465075;31;33828;-80
2021/08/21 06:35:03;;;;;;;2.83;2.30;;;;;;;24.62;51.83;100140.56;4475859;31;33538;-80
2021/08/21 06:37:31;;;;;;;7.75;3.20;;;;;;;24.82;50.93;100135.94;4485238;31;33195;-79
2021/08/21 06:39:59;;;;;;;3.17;2.00;;;;;;;24.65;51.05;100143.00;4483989;31;33731;-80
2021/08/21 06:42:27;;;;;;;6.32;2.53;;;;;;;24.67;49.05;100140.12;4477174;31;35053;-80
2021/08/21 06:44:56;;;;;;;2.37;2.17;;;;;;;25.17;49.06;100137.03;4478720;31;32828;-80
2021/08/21 06:47:24;;;;;;;3.72;1.70;;;;;;;25.26;48.95;100141.53;4484877;31;34318;-80
2021/08/21 06:49:51;;;;;;;2.83;2.05;;;;;;;25.30;47.50;100142.91;4481464;31;33980;-81
2021/08/21 06:52:19;;;;;;;3.65;2.20;;;;;;;25.65;47.53;100131.25;4475153;31;33727;-80
2021/08/21 06:54:47;;;;;;;2.85;2.00;;;;;;;26.05;47.20;100133.44;4490401;31;33835;-80
2021/08/21 06:57:14;;;;;;;5.00;1.83;;;;;;;25.94;47.22;100136.41;4473623;31;33422;-79
2021/08/21 06:59:42;;;;;;;2.55;1.87;;;;;;;25.85;47.45;100133.81;4484936;31;34710;-80
2021/08/21 07:02:10;;;;;;;3.12;1.98;;;;;;;26.45;47.14;100139.31;4485033;31;33948;-80
2021/08/21 07:04:37;;;;;;;3.53;2.08;;;;;;;26.59;45.82;100145.97;4479335;31;34295;-80
2021/08/21 07:07:05;;;;;;;10.20;2.25;;;;;;;26.52;46.49;100140.34;4479115;31;33000;-81
2021/08/21 07:09:33;;;;;;;2.62;1.85;;;;;;;26.74;47.09;100145.22;4471070;31;34537;-81
2021/08/21 07:12:02;;;;;;;4.30;1.95;;;;;;;27.02;47.03;100137.69;4473686;31;33314;-81
2021/08/21 07:14:30;;;;;;;3.90;1.80;;;;;;;26.81;45.03;100140.81;4485017;31;33862;-80
2021/08/21 07:16:58;;;;;;;3.20;1.80;;;;;;;27.14;45.89;100140.97;4487683;31;33313;-81
2021/08/21 07:19:25;;;;;;;1.75;1.17;;;;;;;27.39;46.35;100138.28;4480898;31;34821;-81
2021/08/21 07:21:53;;;;;;;2.97;1.33;;;;;;;27.40;44.73;100142.72;4469514;31;35105;-81
2021/08/21 07:24:22;;;;;;;2.17;1.70;;;;;;;27.37;45.75;100141.19;4487967;31;33821;-81
2021/08/21 07:26:49;;;;;;;2.50;2.15;;;;;;;27.52;43.80;100146.78;4490567;31;33456;-81
2021/08/21 07:29:17;;;;;;;1.75;1.45;;;;;;;27.57;41.40;100147.12;4482873;31;34432;-82
2021/08/21 07:31:45;;;;;;;4.32;1.92;;;;;;;27.80;40.40;100139.22;4467985;31;33476;-81
2021/08/21 07:34:12;;;;;;;1.55;1.33;;;;;;;27.64;43.26;100153.59;4488839;31;34558;-81
2021/08/21 07:36:40;;;;;;;3.75;1.95;;;;;;;27.94;41.87;100143.94;4482923;31;33407;-81
2021/08/21 07:39:07;;;;;;;2.37;2.08;;;;;;;27.94;41.35;100148.53;4471174;31;32950;-81
2021/08/21 07:41:36;;;;;;;2.45;1.95;;;;;;;28.02;41.65;100148.53;4487475;31;35066;-81
2021/08/21 07:44:04;;;;;;;2.33;1.77;;;;;;;28.18;40.70;100151.22;4467779;31;33455;-81
2021/08/21 07:46:32;;;;;;;4.65;1.75;;;;;;;28.21;40.53;100145.44;4465640;31;32609;-81
2021/08/21 07:49:00;;;;;;;3.83;1.58;;;;;;;28.43;39.62;100156.63;4483189;31;34886;-81
2021/08/21 07:51:27;;;;;;;1.90;1.45;;;;;;;28.40;39.51;100157.00;4459108;31;34653;-82
2021/08/21 07:53:55;;;;;;;2.87;1.30;;;;;;;28.61;37.75;100157.25;4449300;31;33441;-81
2021/08/21 07:56:23;;;;;;;2.80;1.27;;;;;;;28.81;36.94;100163.13;4485431;31;33112;-81
2021/08/21 07:58:51;;;;;;;2.72;1.23;;;;;;;28.93;37.25;100159.00;4472544;31;34686;-81
2021/08/21 08:01:19;;;;;;;4.30;1.20;;;;;;;28.88;34.80;100168.72;4474791;31;33439;-81
2021/08/21 08:03:48;;;;;;;2.08;1.02;;;;;;;28.84;37.40;100163.63;4486477;31;33487;-81
2021/08/21 08:06:15;;;;;;;1.92;1.27;;;;;;;29.00;36.60;100162.72;4486383;31;32569;-81
2021/08/21 08:08:43;;;;;;;2.03;1.33;;;;;;;29.20;35.93;100156.84;4486774;31;33604;-81
2021/08/21 08:11:11;;;;;;;1.58;1.10;;;;;;;29.29;36.04;100162.06;4487095;31;33847;-81
2021/08/21 08:13:40;;;;;;;12.37;4.20;;;;;;;29.17;34.30;100159.94;4488063;31;33571;-81
2021/08/21 08:16:07;;;;;;;10.25;4.15;;;;;;;29.45;36.80;100157.53;4474126;31;32941;-81
2021/08/21 08:18:35;;;;;;;1.17;1.08;;;;;;;29.73;36.50;100163.31;4481947;31;34283;-81
2021/08/21 08:21:02;;;;;;;3.95;1.27;;;;;;;29.42;33.77;100155.19;4488933;31;33380;-82
2021/08/21 08:23:30;;;;;;;1.92;1.20;;;;;;;29.62;35.57;100170.03;4485163;31;34007;-81
2021/08/21 08:25:58;;;;;;;1.42;1.33;;;;;;;29.83;34.44;100169.37;4490991;31;31870;-81
2021/08/21 08:28:26;;;;;;;6.53;1.40;;;;;;;29.48;34.17;100170.78;4490275;31;33943;-81
2021/08/21 08:30:54;;;;;;;1.25;0.93;;;;;;;29.63;32.92;100174.47;4472916;31;34981;-81
2021/08/21 08:33:22;;;;;;;1.15;0.93;;;;;;;30.02;33.92;100174.31;4474237;31;34353;-81
2021/08/21 08:35:51;;;;;;;1.65;1.10;;;;;;;29.52;34.77;100172.09;4469379;31;33148;-81
2021/08/21 08:38:19;;;;;;;3.22;1.25;;;;;;;29.84;33.32;100176.50;4487865;31;33613;-81
2021/08/21 08:40:48;;;;;;;1.35;1.20;;;;;;;30.36;33.49;100162.09;4482493;31;34113;-81
2021/08/21 08:43:18;;;;;;;2.60;1.05;;;;;;;30.06;32.49;100170.19;4470913;31;32670;-81
2021/08/21 08:45:46;;;;;;;1.92;1.17;;;;;;;30.48;31.88;100165.19;4472374;31;32968;-81
2021/08/21 08:48:14;;;;;;;1.95;0.90;;;;;;;30.30;32.13;100162.84;4472784;31;33641;-80
2021/08/21 08:50:42;;;;;;;2.05;1.00;;;;;;;30.00;32.16;100170.06;4468384;31;33178;-81
2021/08/21 08:53:10;;;;;;;4.12;1.92;;;;;;;30.12;31.54;100163.16;4459529;31;32808;-82
2021/08/21 08:55:40;;;;;;;1.05;0.85;;;;;;;30.32;31.97;100163.50;4474035;31;32677;-81
2021/08/21 08:58:07;;;;;;;39.40;13.35;;;;;;;30.08;31.26;100159.94;4480706;31;33968;-81
2021/08/21 09:00:35;;;;;;;1.92;1.20;;;;;;;30.53;33.85;100154.59;4472387;31;34496;-81
2021/08/21 09:03:03;;;;;;;13.82;4.00;;;;;;;30.66;31.89;100162.09;4488216;31;33788;-81
2021/08/21 09:05:40;;;;;;;2.37;1.77;;;;;;;30.72;31.66;100154.06;4471977;31;33438;-83
2021/08/21 09:08:29;;;;;;;3.17;0.80;;;;;;;30.74;32.19;100154.69;4482131;31;33963;-81
2021/08/21 09:10:58;;;;;;;2.75;1.40;;;;;;;30.53;29.97;100160.03;4481101;31;34049;-81
2021/08/21 09:13:27;;;;;;;1.75;1.12;;;;;;;31.00;30.17;100153.34;4453792;31;33809;-81
2021/08/21 09:15:59;;;;;;;1.17;0.88;;;;;;;30.94;31.07;100163.13;4492224;31;33740;-81
2021/08/21 09:18:29;;;;;;;4.22;1.08;;;;;;;31.19;30.06;100155.44;4462355;31;33850;-81
2021/08/21 09:21:11;;;;;;;1.25;0.80;;;;;;;30.97;29.55;100156.47;4469179;31;34803;-81
2021/08/21 09:23:46;;;;;;;1.62;0.88;;;;;;;30.89;29.59;100164.75;4487782;31;33835;-82
2021/08/21 09:26:35;;;;;;;0.90;0.77;;;;;;;30.88;31.22;100158.44;4471361;31;33427;-81
2021/08/21 09:29:03;;;;;;;1.05;0.82;;;;;;;31.32;29.24;100154.78;4475147;31;33904;-82
2021/08/21 09:31:33;;;;;;;1.55;1.10;;;;;;;31.18;28.09;100153.75;4467741;31;32968;-81
2021/08/21 09:34:09;;;;;;;3.03;1.00;;;;;;;30.63;28.27;100152.44;4481817;31;34369;-82
2021/08/21 09:36:39;;;;;;;2.37;1.12;;;;;;;31.28;29.11;100148.03;4449208;31;33910;-81
2021/08/21 09:39:09;;;;;;;4.18;1.17;;;;;;;31.65;29.66;100157.88;4482300;31;33572;-81
2021/08/21 09:41:53;;;;;;;1.23;1.00;;;;;;;31.64;29.06;100148.00;4497535;31;34076;-81
2021/08/21 09:44:39;;;;;;;2.90;0.82;;;;;;;31.23;28.36;100154.03;4487946;31;34362;-81
2021/08/21 09:47:28;;;;;;;0.95;0.80;;;;;;;31.09;28.58;100144.00;4469093;31;34013;-81
2021/08/21 09:50:14;;;;;;;1.17;0.90;;;;;;;31.54;28.07;100148.31;4468954;31;34641;-82
2021/08/21 09:52:43;;;;;;;3.28;0.85;;;;;;;31.51;29.71;100153.31;4465235;32;34087;-81
2021/08/21 09:55:15;;;;;;;3.40;0.90;;;;;;;31.70;29.27;100149.94;4475281;31;33284;-82
2021/08/21 09:57:43;;;;;;;1.25;0.60;;;;;;;31.71;28.73;100154.34;4469940;31;33414;-81
2021/08/21 10:00:11;;;;;;;1.77;1.15;;;;;;;31.85;28.56;100139.81;4484438;31;33982;-81
2021/08/21 10:02:43;;;;;;;1.12;0.80;;;;;;;31.77;27.58;100145.41;4476348;31;33177;-81
2021/08/21 10:05:11;;;;;;;1.62;1.05;;;;;;;31.69;28.81;100144.69;4475078;31;34013;-81
2021/08/21 10:07:43;;;;;;;1.00;0.80;;;;;;;31.78;29.71;100149.81;4494795;31;33338;-82
2021/08/21 10:10:14;;;;;;;0.90;0.70;;;;;;;31.75;29.49;100141.16;4477574;31;33304;-82
2021/08/21 10:12:46;;;;;;;1.98;1.10;;;;;;;31.66;27.14;100147.78;4464664;32;34035;-81
2021/08/21 10:15:14;;;;;;;2.67;1.20;;;;;;;31.50;26.35;100148.91;4470004;31;34633;-82
2021/08/21 10:17:43;;;;;;;2.03;1.00;;;;;;;31.95;27.59;100138.63;4464391;31;33791;-81
2021/08/21 10:20:13;;;;;;;2.03;0.70;;;;;;;32.41;26.72;100141.72;4467110;31;35590;-81
2021/08/21 10:22:42;;;;;;;3.70;1.62;;;;;;;32.57;26.37;100135.06;4470753;31;34096;-82
2021/08/21 10:25:10;;;;;;;25.73;8.18;;;;;;;32.47;26.31;100142.81;4470566;31;32940;-81
2021/08/21 10:27:43;;;;;;;2.00;0.95;;;;;;;32.69;29.43;100135.37;4490935;31;33151;-81
2021/08/21 10:30:26;;;;;;;0.88;0.75;;;;;;;32.84;25.14;100138.78;4468586;31;34089;-81
2021/08/21 10:32:59;;;;;;;32.20;11.90;;;;;;;32.47;25.24;100137.34;4474696;31;34018;-81
2021/08/21 10:35:51;;;;;;;10.20;2.45;;;;;;;31.94;25.55;100126.00;4462841;31;33177;-81
2021/08/21 10:38:33;;;;;;;1.40;0.95;;;;;;;31.97;28.71;100136.56;4480665;31;33068;-81
2021/08/21 10:41:08;;;;;;;1.70;1.30;;;;;;;32.72;27.05;100133.06;4479967;31;34091;-81
2021/08/21 10:43:55;;;;;;;2.25;1.10;;;;;;;32.52;26.32;100126.62;4492945;31;33705;-81
2021/08/21 10:46:28;;;;;;;2.22;1.25;;;;;;;32.59;26.03;100131.09;4481088;31;33879;-81
2021/08/21 10:49:01;;;;;;;0.80;0.70;;;;;;;32.25;26.42;100129.19;4487191;31;33370;-81
2021/08/21 10:51:39;;;;;;;0.95;0.73;;;;;;;32.06;26.44;100124.44;4487285;31;33967;-81
2021/08/21 10:54:25;;;;;;;1.48;1.05;;;;;;;32.41;25.14;100127.22;4464756;31;33109;-81
2021/08/21 10:56:55;;;;;;;1.30;0.95;;;;;;;32.79;26.14;100124.91;4489075;31;33947;-81
2021/08/21 10:59:40;;;;;;;1.50;1.00;;;;;;;32.74;25.89;100128.22;4488865;31;33834;-81
2021/08/21 11:02:23;;;;;;;1.08;0.90;;;;;;;32.56;26.10;100128.78;4481567;31;34580;-81
2021/08/21 11:04:51;;;;;;;2.05;1.30;;;;;;;32.97;24.70;100129.84;4490243;31;34088;-82
2021/08/21 11:07:34;;;;;;;1.10;0.90;;;;;;;33.03;24.56;100127.12;4469712;31;34752;-81
2021/08/21 11:10:29;;;;;;;3.15;1.33;;;;;;;32.79;24.78;100133.09;4490045;31;33189;-81
2021/08/21 11:12:56;;;;;;;1.10;0.98;;;;;;;33.19;25.04;100131.41;4475728;31;33312;-81
2021/08/21 11:15:31;;;;;;;4.20;1.10;;;;;;;33.23;25.41;100126.34;4461290;31;32447;-82
2021/08/21 11:17:59;;;;;;;1.52;1.00;;;;;;;33.01;24.67;100128.37;4484858;31;33556;-81
2021/08/21 11:20:30;;;;;;;1.20;0.88;;;;;;;33.30;23.54;100116.25;4486705;31;34099;-81
2021/08/21 11:23:06;;;;;;;1.60;0.93;;;;;;;33.35;23.57;100119.22;4481642;31;34009;-81
2021/08/21 11:25:36;;;;;;;1.10;1.00;;;;;;;32.18;24.63;100128.28;4483948;31;34540;-81
2021/08/21 11:28:10;;;;;;;1.23;1.08;;;;;;;31.81;32.08;100129.44;4483964;31;33501;-81
2021/08/21 11:30:40;;;;;;;1.83;1.25;;;;;;;32.10;27.05;100121.13;4481255;31;95141;-81
2021/08/21 11:33:09;;;;;;;1.20;0.87;;;;;;;32.28;26.22;100117.84;4467432;31;34488;-81
2021/08/21 11:35:46;;;;;;;1.42;1.30;;;;;;;32.28;25.57;100117.84;4488602;31;34086;-81
2021/08/21 11:38:27;;;;;;;1.62;0.88;;;;;;;32.20;26.10;100118.03;4484367;31;33899;-81